Latest Weather Observations for Williamtown

IDN60801

Issued at 2:35 pm EDT Tuesday 21 October 2014 (issued every 30 minutes, with the page automatically refreshed every 10 minutes)

About weather observations | Map of weather stations | Latest weather observations for NSW | Other Formats
Station Details ID: 061078 Name: WILLIAMTOWN RAAF Lat: -32.79 Lon: 151.84 Height: 9.0 m
Data from the previous 72 hours. | See also: Recent months at Williamtown
Date/Time
EDT
Temp
°C
App
Temp
°C
Dew
Point
Rel
Hum
%
Delta-T
°C
Wind Press
QNH
hPa
Press
MSL
hPa
Rain
since 9 am
mm
Dir
 
Spd
km/h
Gust
km/h
Spd
kts
Gust
kts
21/02:30pm 18.2 14.6 8.2 52 5.1 ESE 17 26 9 14 1030.8 - 0.0
21/02:00pm 18.1 14.1 8.3 52 5.0 ESE 19 28 10 15 1031.2 - 0.0
21/01:30pm 18.3 13.8 6.8 47 5.7 ESE 20 32 11 17 1031.5 - 0.0
21/01:00pm 18.5 14.4 6.3 45 6.0 ESE 17 28 9 15 1031.8 - 0.0
21/12:30pm 18.2 13.4 5.6 43 6.1 SE 20 28 11 15 1032.0 - 0.0
21/12:00pm 18.3 14.0 6.8 47 5.7 SE 19 28 10 15 1032.2 1032.3 0.0
21/11:30am 18.1 13.6 6.0 45 5.9 ESE 19 26 10 14 1032.3 - 0.0
21/11:00am 17.9 13.1 5.7 44 5.9 ESE 20 24 11 13 1032.5 - 0.0
21/10:30am 17.7 13.0 5.1 43 6.1 ESE 19 28 10 15 1032.7 - 0.0
21/10:00am 17.6 13.0 5.8 46 5.7 ESE 19 22 10 12 1032.6 - 0.0
21/09:30am 17.0 12.4 5.5 46 5.5 E 19 26 10 14 1032.6 - 0.0
21/09:00am 17.0 12.7 6.8 51 5.0 E 19 26 10 14 1032.2 1032.3 0.8
21/08:30am 16.8 12.8 6.8 51 4.9 ESE 17 22 9 12 1031.9 - 0.8
21/08:00am 16.6 13.1 7.3 54 4.6 ESE 15 20 8 11 1031.6 - 0.8
21/07:30am 16.5 13.0 7.4 55 4.5 ESE 15 19 8 10 1031.3 - 0.8
21/07:00am 16.4 13.4 7.5 55 4.4 E 13 17 7 9 1030.9 - 0.8
21/06:30am 16.3 13.0 8.1 58 4.1 E 15 19 8 10 1030.7 - 0.8
21/06:00am 16.3 12.6 7.9 57 4.2 E 17 22 9 12 1030.3 1030.4 0.8
21/05:30am 15.9 12.7 8.6 62 3.7 ESE 15 20 8 11 1030.1 - 0.8
21/05:00am 16.0 12.7 8.2 60 3.9 ESE 15 20 8 11 1030.0 - 0.8
21/04:30am 16.1 13.3 8.4 60 3.9 ESE 13 17 7 9 1030.1 - 0.8
21/04:00am 16.1 12.7 9.3 64 3.5 ESE 17 20 9 11 1030.1 - 0.8
21/03:30am 16.2 14.1 9.6 65 3.4 ESE 11 15 6 8 1030.1 - 0.8
21/03:00am 16.0 14.0 10.0 67 3.1 ESE 11 17 6 9 1030.2 1030.3 0.8
21/02:30am 16.0 14.9 10.7 71 2.8 E 7 9 4 5 1030.4 - 0.6
21/02:00am 16.4 14.3 9.9 65 3.4 E 11 13 6 7 1030.4 - 0.6
21/01:30am 16.5 14.4 9.8 64 3.5 E 11 15 6 8 1030.7 - 0.6
21/01:00am 16.6 14.2 9.9 64 3.5 E 13 17 7 9 1031.0 - 0.6
21/12:30am 16.7 14.3 10.0 64 3.5 E 13 19 7 10 1031.2 - 0.6
21/12:00am 16.8 14.0 10.1 64 3.5 ESE 15 26 8 14 1031.3 1031.4 0.6
 
Date/Time
EDT
Temp
°C
App
Temp
°C
Dew
Point
Rel
Hum
%
Delta-T
°C
Wind Press
QNH
hPa
Press
MSL
hPa
Rain
since 9 am
mm
Dir
 
Spd
km/h
Gust
km/h
Spd
kts
Gust
kts
20/11:30pm 16.8 13.7 10.3 65 3.4 ESE 17 24 9 13 1031.3 - 0.6
20/11:00pm 16.6 13.6 10.5 67 3.2 ESE 17 22 9 12 1031.4 - 0.6
20/10:30pm 16.5 14.1 11.3 71 2.8 ESE 15 20 8 11 1031.5 - 0.6
20/10:00pm 16.6 13.4 11.4 71 2.8 ESE 19 28 10 15 1031.5 - 0.6
20/09:30pm 16.3 12.9 10.6 69 3.0 SE 19 26 10 14 1031.4 - 0.6
20/09:25pm 16.1 13.2 11.0 72 2.7 SE 17 22 9 12 1031.4 - 0.6
20/09:10pm 15.5 12.0 12.2 81 1.8 SE 22 32 12 17 1031.3 - 0.6
20/09:00pm 15.8 13.4 12.7 82 1.7 SE 17 24 9 13 1031.2 1031.3 0.6
20/08:30pm 16.9 13.7 11.1 68 3.1 SE 19 26 10 14 1030.6 - 0.6
20/08:00pm 16.6 12.8 11.2 70 2.9 SSE 22 30 12 16 1030.4 - 0.6
20/07:30pm 16.6 13.3 11.6 72 2.7 SE 20 30 11 16 1030.0 - 0.6
20/07:00pm 15.7 13.2 13.4 86 1.3 SSE 19 32 10 17 1029.7 - 0.6
20/06:30pm 16.5 12.4 12.7 78 2.1 SSE 26 33 14 18 1029.4 - 0.6
20/06:00pm 16.5 12.7 13.5 82 1.7 SSE 26 37 14 20 1029.2 1029.3 0.6
20/05:30pm 17.4 14.7 13.5 78 2.2 SSE 20 35 11 19 1029.0 - 0.6
20/05:00pm 17.6 14.6 14.8 84 1.6 SSE 24 32 13 17 1028.9 - 0.4
20/04:30pm 16.7 13.1 15.3 91 0.8 S 28 35 15 19 1028.8 - 0.4
20/04:19pm 16.9 13.5 15.7 93 0.7 S 28 35 15 19 1028.6 - 0.4
20/04:07pm 17.1 13.7 15.9 93 0.7 S 28 37 15 20 1028.7 - 0.4
20/04:00pm 17.8 14.0 15.8 88 1.2 S 30 37 16 20 1028.7 - 0.0
20/03:30pm 18.0 16.0 15.4 85 1.5 SSW 20 28 11 15 1028.6 - 0.0
20/03:00pm 17.1 14.3 15.4 90 1.0 S 24 32 13 17 1029.0 1029.1 0.0
20/02:30pm 20.3 16.0 12.2 59 4.5 S 26 37 14 20 1028.8 - 0.0
20/02:00pm 20.5 15.7 11.6 56 4.9 S 28 35 15 19 1029.3 - 0.0
20/01:30pm 20.6 16.0 12.4 59 4.6 S 28 37 15 20 1029.5 - 0.0
20/01:00pm 19.3 13.5 11.6 61 4.2 S 33 46 18 25 1029.7 - 0.0
20/12:40pm 20.2 14.1 11.7 58 4.7 SSW 35 56 19 30 1029.7 - 0.0
20/12:30pm 20.6 15.1 11.9 57 4.8 S 32 41 17 22 1029.7 - 0.0
20/12:00pm 20.2 13.9 12.3 60 4.4 S 37 50 20 27 1029.7 1029.8 0.0
20/11:30am 20.8 14.1 12.2 58 4.8 S 39 54 21 29 1029.5 - 0.0
20/11:22am 20.1 14.0 11.7 58 4.7 S 35 54 19 29 1029.5 - 0.0
20/11:00am 19.6 14.2 12.8 65 3.8 S 33 48 18 26 1029.3 - 0.0
20/10:30am 19.3 13.6 12.9 66 3.6 S 35 56 19 30 1028.9 - 0.0
20/10:00am 19.7 14.4 14.1 70 3.2 S 35 57 19 31 1028.2 - 0.0
20/09:30am 19.9 14.5 14.9 73 2.9 S 37 52 20 28 1027.4 - 0.0
20/09:22am 19.8 14.0 15.0 74 2.8 S 39 57 21 31 1027.2 - 0.0
20/09:00am 19.9 14.0 15.7 77 2.5 S 41 56 22 30 1026.6 1026.7 0.0
20/08:32am 20.6 15.5 15.9 74 2.8 SSW 37 56 20 30 1025.6 - 0.0
20/08:30am 20.6 15.6 16.1 75 2.7 SSW 37 54 20 29 1025.6 - 0.0
20/08:20am 20.4 16.5 15.5 73 2.9 SSW 30 50 16 27 1025.5 - 0.0
20/08:00am 17.2 14.7 13.5 79 2.1 WSW 19 26 10 14 1025.1 - 0.0
20/07:30am 15.1 13.7 12.1 82 1.6 NW 11 15 6 8 1023.4 - 0.0
20/07:00am 13.6 12.8 11.7 88 1.0 NW 7 11 4 6 1022.9 - 0.0
20/06:30am 11.7 10.6 10.7 94 0.5 NNW 7 9 4 5 1022.6 - 0.0
20/06:00am 11.5 9.6 10.5 94 0.5 NNW 11 13 6 7 1022.3 - 0.0
20/05:30am 11.0 11.1 10.2 95 0.4 CALM 0 0 0 0 1022.1 - 0.0
20/05:00am 11.3 11.4 10.1 92 0.6 CALM 0 0 0 0 1021.9 - 0.0
20/04:30am 11.6 11.8 10.6 94 0.5 CALM 0 0 0 0 1021.8 - 0.0
20/04:00am 11.5 11.7 10.5 94 0.5 CALM 0 0 0 0 1021.6 - 0.0
20/03:30am 10.5 10.4 9.5 93 0.5 CALM 0 0 0 0 1021.8 - 0.0
20/03:00am 10.8 10.9 10.0 95 0.4 CALM 0 0 0 0 1022.0 1022.1 0.0
20/02:30am 12.1 12.3 10.7 91 0.7 CALM 0 0 0 0 1022.1 - 0.0
20/02:00am 12.6 13.0 11.1 91 0.8 CALM 0 0 0 0 1022.3 - 0.0
20/01:30am 14.0 14.6 11.8 86 1.2 CALM 0 0 0 0 1022.6 - 0.0
20/01:00am 14.0 14.6 11.8 86 1.2 CALM 0 0 0 0 1023.0 - 0.0
20/12:30am 14.4 15.0 11.8 84 1.4 CALM 0 0 0 0 1023.3 - 0.0
20/12:00am 14.4 15.0 11.8 84 1.4 CALM 0 0 0 0 1023.3 1023.4 0.0
 
Date/Time
EDT
Temp
°C
App
Temp
°C
Dew
Point
Rel
Hum
%
Delta-T
°C
Wind Press
QNH
hPa
Press
MSL
hPa
Rain
since 9 am
mm
Dir
 
Spd
km/h
Gust
km/h
Spd
kts
Gust
kts
19/11:30pm 14.9 15.5 11.9 82 1.6 CALM 0 0 0 0 1023.7 - 0.0
19/11:00pm 16.1 14.6 11.8 75 2.3 NNE 11 13 6 7 1023.7 - 0.0
19/10:30pm 16.0 14.9 11.9 76 2.2 NNE 9 13 5 7 1024.0 - 0.0
19/10:00pm 16.5 15.4 12.1 75 2.4 NE 9 13 5 7 1024.1 - 0.0
19/09:30pm 17.3 15.8 12.0 71 2.9 NNE 11 17 6 9 1024.0 - 0.0
19/09:00pm 17.7 16.0 12.4 71 2.9 NE 13 22 7 12 1023.8 1023.9 0.0
19/08:30pm 18.1 16.2 12.9 71 2.9 NE 15 24 8 13 1023.5 - 0.0
19/08:00pm 18.3 16.0 13.1 71 2.9 NE 17 24 9 13 1023.4 - 0.0
19/07:30pm 18.8 16.6 13.3 70 3.1 ENE 17 22 9 12 1023.2 - 0.0
19/07:00pm 19.5 17.2 13.1 66 3.6 ENE 17 24 9 13 1023.0 - 0.0
19/06:30pm 20.3 18.0 12.9 62 4.2 ENE 17 28 9 15 1022.8 - 0.0
19/06:00pm 21.0 17.9 12.2 57 4.9 ENE 20 30 11 16 1022.8 1022.9 0.0
19/05:30pm 22.0 18.4 12.0 53 5.6 ENE 22 32 12 17 1022.8 - 0.0
19/05:00pm 22.4 19.2 11.2 49 6.2 ENE 19 26 10 14 1022.9 - 0.0
19/04:30pm 23.5 20.5 10.8 44 7.0 ENE 17 26 9 14 1022.9 - 0.0
19/04:00pm 24.6 21.7 11.0 42 7.6 ESE 17 24 9 13 1022.9 - 0.0
19/03:30pm 24.2 20.3 12.2 47 6.8 SE 24 30 13 16 1023.0 - 0.0
19/03:00pm 24.4 22.3 12.3 46 6.9 ESE 15 24 8 13 1023.5 1023.6 0.0
19/02:30pm 23.5 20.5 12.0 48 6.5 SE 19 22 10 12 1024.1 - 0.0
19/02:00pm 23.1 18.7 11.7 48 6.4 SE 26 32 14 17 1024.6 - 0.0
19/01:30pm 24.1 21.5 6.0 31 9.2 NNE 9 15 5 8 1025.1 - 0.0
19/01:00pm 23.5 19.9 0.5 22 10.6 NNW 9 19 5 10 1025.6 - 0.0
19/12:30pm 23.5 21.1 7.0 34 8.6 NNE 9 15 5 8 1026.0 - 0.0
19/12:00pm 22.5 20.1 6.8 36 8.0 N 9 17 5 9 1026.5 1026.6 0.0
19/11:30am 21.3 18.3 4.3 32 8.3 NNE 9 13 5 7 1027.1 - 0.0
19/11:00am 20.3 18.4 9.1 48 5.9 N 9 15 5 8 1027.6 - 0.0
19/10:30am 19.0 16.9 9.9 55 4.8 NNW 11 15 6 8 1027.8 - 0.0
19/10:00am 18.3 16.4 10.4 60 4.2 NW 11 15 6 8 1028.1 - 0.0
19/09:30am 17.3 15.7 10.3 63 3.7 NW 9 13 5 7 1028.2 - 0.0
19/09:00am 15.6 14.0 10.2 70 2.8 NW 9 15 5 8 1028.3 1028.4 0.0
19/08:30am 14.5 13.0 10.7 78 2.0 WNW 9 11 5 6 1028.3 - 0.0
19/08:00am 12.8 10.6 10.7 87 1.1 WNW 13 15 7 8 1028.2 - 0.0
19/07:30am 10.9 8.8 9.9 93 0.5 NW 11 13 6 7 1027.8 - 0.0
19/07:00am 9.0 6.9 8.2 95 0.4 W 9 9 5 5 1027.7 - 0.0
19/06:30am 6.4 5.4 5.7 95 0.3 CALM 0 0 0 0 1027.3 - 0.0
19/06:00am 6.5 5.6 6.1 97 0.2 CALM 0 0 0 0 1027.2 1027.3 0.0
19/05:30am 7.2 6.3 6.1 93 0.5 CALM 0 0 0 0 1027.0 - 0.0
19/05:00am 6.8 6.0 6.4 97 0.2 CALM 0 0 0 0 1027.0 - 0.0
19/04:30am 7.3 6.5 6.4 94 0.4 CALM 0 0 0 0 1027.0 - 0.0
19/04:00am 7.6 6.8 6.7 94 0.4 CALM 0 0 0 0 1027.0 - 0.0
19/03:30am 8.0 7.3 7.1 94 0.4 CALM 0 0 0 0 1027.1 - 0.0
19/03:00am 8.2 7.7 7.8 97 0.2 CALM 0 0 0 0 1027.3 1027.4 0.0
19/02:30am 8.4 7.4 7.3 93 0.5 SSW 2 6 1 3 1027.6 - 0.0
19/02:00am 9.1 8.7 8.1 93 0.5 CALM 0 0 0 0 1027.7 - 0.0
19/01:30am 9.3 8.8 8.0 92 0.6 CALM 0 0 0 0 1027.9 - 0.0
19/01:00am 10.1 9.7 8.2 88 0.9 CALM 0 0 0 0 1028.2 - 0.0
19/12:30am 11.0 9.8 9.4 90 0.8 NNE 6 7 3 4 1028.4 - 0.0
19/12:00am 11.0 9.2 9.4 90 0.8 NNE 9 9 5 5 1028.5 1028.6 0.0
 
Date/Time
EDT
Temp
°C
App
Temp
°C
Dew
Point
Rel
Hum
%
Delta-T
°C
Wind Press
QNH
hPa
Press
MSL
hPa
Rain
since 9 am
mm
Dir
 
Spd
km/h
Gust
km/h
Spd
kts
Gust
kts
18/11:30pm 11.3 9.9 9.5 89 0.9 NE 7 9 4 5 1028.7 - 0.0
18/11:00pm 11.3 9.5 9.3 87 1.0 ENE 9 13 5 7 1028.8 - 0.0
18/10:30pm 12.4 11.0 9.6 83 1.4 ENE 7 9 4 5 1029.1 - 0.0
18/10:00pm 12.7 11.0 9.7 82 1.5 ENE 9 11 5 6 1029.1 - 0.0
18/09:30pm 13.6 11.9 9.9 78 1.9 NE 9 13 5 7 1029.1 - 0.0
18/09:00pm 13.3 11.9 9.6 78 1.9 NNE 7 9 4 5 1028.9 1029.0 0.0
18/08:30pm 14.6 12.9 9.7 72 2.5 ENE 9 11 5 6 1028.7 - 0.0
18/08:00pm 15.5 13.7 9.5 67 3.1 ENE 9 15 5 8 1028.4 - 0.0
18/07:30pm 16.2 13.5 9.0 62 3.7 E 13 17 7 9 1028.1 - 0.0
18/07:00pm 17.1 13.9 8.4 56 4.4 E 15 20 8 11 1027.8 - 0.0
18/06:30pm 17.7 13.6 7.8 52 5.0 E 19 24 10 13 1027.4 - 0.0
18/06:00pm 18.3 13.8 6.8 47 5.7 E 20 26 11 14 1027.2 1027.3 0.0
18/05:30pm 18.6 13.7 6.7 46 5.9 E 22 30 12 16 1026.9 - 0.0
18/05:00pm 18.6 13.9 6.2 44 6.1 E 20 28 11 15 1027.0 - 0.0
18/04:30pm 19.1 13.9 5.3 40 6.7 ESE 22 30 12 16 1026.9 - 0.0
18/04:00pm 19.5 14.3 5.6 40 6.8 SE 22 32 12 17 1026.9 - 0.0
18/03:30pm 19.4 14.2 5.7 40 6.7 ESE 22 30 12 16 1027.1 - 0.0
18/03:00pm 19.5 14.3 5.3 39 6.9 ESE 22 32 12 17 1027.3 1027.4 0.0

Other Formats:

Comma delimited format used in spreadsheet applications
http://www.bom.gov.au/fwo/IDN60801/IDN60801.94776.axf

JavaScript Object Notation format (JSON) in row-major order
http://www.bom.gov.au/fwo/IDN60801/IDN60801.94776.json